Time;durP1;ratioP1;P1;durP2;ratioP2;P2;SDS_P1;SDS_P2;PMS_P1;PMS_P2;Temp;Humidity;BMP_temperature;BMP_pressure;BME280_temperature;BME280_humidity;BME280_pressure;Samples;Min_cycle;Max_cycle;Signal;HPM_P1;HPM_P2
2022/07/28 00:00:49;;;;;;;6.03;2.50;;;11.70;99.90;;;;;;4983408;28;20048;-65
2022/07/28 00:03:16;;;;;;;4.78;2.80;;;11.70;99.90;;;;;;5021535;28;20053;-66
2022/07/28 00:05:41;;;;;;;4.25;2.40;;;11.60;99.90;;;;;;4991049;28;20062;-65
2022/07/28 00:08:09;;;;;;;5.32;2.65;;;11.50;99.90;;;;;;4990921;28;20046;-65
2022/07/28 00:10:35;;;;;;;5.47;2.75;;;11.50;99.90;;;;;;4989794;28;20436;-64
2022/07/28 00:13:01;;;;;;;4.93;3.17;;;11.50;99.90;;;;;;4990546;28;20046;-64
2022/07/28 00:15:27;;;;;;;4.38;2.90;;;11.50;99.90;;;;;;4984094;28;20046;-65
2022/07/28 00:17:53;;;;;;;5.88;2.95;;;11.50;99.90;;;;;;4989761;28;20081;-65
2022/07/28 00:20:19;;;;;;;8.88;2.88;;;11.40;99.90;;;;;;4990794;28;20132;-69
2022/07/28 00:22:45;;;;;;;5.60;2.83;;;11.40;99.90;;;;;;4990523;28;20069;-67
2022/07/28 00:25:11;;;;;;;7.75;3.17;;;11.40;99.90;;;;;;4990230;28;20042;-64
2022/07/28 00:27:38;;;;;;;7.10;2.92;;;11.40;99.90;;;;;;4991318;28;20081;-67
2022/07/28 00:30:06;;;;;;;5.78;3.53;;;11.30;99.90;;;;;;4974470;28;20415;-65
2022/07/28 00:32:32;;;;;;;16.00;7.20;;;11.40;99.90;;;;;;4989050;28;20050;-66
2022/07/28 00:34:58;;;;;;;17.17;7.47;;;11.40;99.90;;;;;;4998029;28;20058;-65
2022/07/28 00:37:24;;;;;;;19.23;7.72;;;11.40;99.90;;;;;;4991299;28;20042;-64
2022/07/28 00:39:50;;;;;;;18.90;7.80;;;11.50;99.90;;;;;;4989684;28;20149;-64
2022/07/28 00:42:19;;;;;;;21.05;8.35;;;11.60;99.90;;;;;;4988862;28;20060;-65
2022/07/28 00:44:45;;;;;;;18.33;7.88;;;11.70;99.90;;;;;;4971882;28;20053;-67
2022/07/28 00:47:12;;;;;;;12.57;6.10;;;11.70;99.90;;;;;;4989986;28;20046;-67
2022/07/28 00:49:38;;;;;;;14.27;6.38;;;11.80;99.90;;;;;;4990552;28;20050;-64
2022/07/28 00:52:06;;;;;;;14.23;6.50;;;11.80;99.90;;;;;;4989220;28;20050;-66
2022/07/28 00:54:33;;;;;;;17.02;8.10;;;11.80;99.90;;;;;;5001769;28;20046;-64
2022/07/28 00:56:59;;;;;;;18.67;6.63;;;11.80;99.90;;;;;;4974763;28;20145;-65
2022/07/28 00:59:25;;;;;;;8.20;4.50;;;11.70;99.90;;;;;;4991297;28;20057;-64
2022/07/28 01:01:52;;;;;;;11.63;5.30;;;11.70;99.90;;;;;;4993141;28;20496;-65
2022/07/28 01:04:19;;;;;;;9.65;5.00;;;11.70;99.90;;;;;;4992571;28;20046;-64
2022/07/28 01:07:05;;;;;;;9.90;4.85;;;11.80;99.90;;;;;;4985742;28;20648;-68
2022/07/28 01:09:55;;;;;;;11.25;4.25;;;11.70;99.90;;;;;;4982948;28;20049;-65
2022/07/28 01:12:44;;;;;;;7.53;3.75;;;11.70;99.90;;;;;;4993966;28;20060;-66
2022/07/28 01:15:13;;;;;;;5.28;3.60;;;11.70;99.90;;;;;;4994808;28;20050;-65
2022/07/28 01:18:05;;;;;;;5.47;3.35;;;11.60;99.90;;;;;;4977706;28;20046;-65
2022/07/28 01:20:38;;;;;;;6.97;3.53;;;11.60;99.90;;;;;;4989965;28;20058;-65
2022/07/28 01:23:16;;;;;;;4.78;3.47;;;11.60;99.90;;;;;;4975613;28;20054;-67
2022/07/28 01:26:07;;;;;;;4.88;3.22;;;11.60;99.90;;;;;;4977197;28;20101;-66
2022/07/28 01:28:44;;;;;;;6.30;3.70;;;11.50;99.90;;;;;;4994598;28;20401;-65
2022/07/28 01:31:18;;;;;;;5.50;3.30;;;11.40;99.90;;;;;;4991506;28;20042;-65
2022/07/28 01:33:50;;;;;;;5.80;3.60;;;11.30;99.90;;;;;;4979018;28;20046;-69
2022/07/28 01:36:17;;;;;;;;;;;11.20;99.90;;;;;;4995303;28;20054;-66
2022/07/28 01:38:46;;;;;;;6.20;3.38;;;11.10;99.90;;;;;;4988558;28;19921;-66
2022/07/28 01:41:18;;;;;;;4.65;3.17;;;11.10;99.90;;;;;;4977502;28;20104;-67
2022/07/28 01:43:55;;;;;;;7.20;3.47;;;11.10;99.90;;;;;;4987357;28;20042;-68
2022/07/28 01:46:23;;;;;;;5.97;3.28;;;11.10;99.90;;;;;;4988153;28;20061;-66
2022/07/28 01:48:50;;;;;;;6.97;3.38;;;11.00;99.90;;;;;;4989294;28;20077;-65
2022/07/28 01:51:17;;;;;;;5.75;3.08;;;11.00;99.90;;;;;;4978050;28;20054;-67
2022/07/28 01:53:45;;;;;;;4.72;3.33;;;11.00;99.90;;;;;;4988130;28;20054;-66
2022/07/28 01:56:14;;;;;;;9.43;3.60;;;11.00;99.90;;;;;;4985687;28;20109;-66
2022/07/28 01:58:42;;;;;;;7.80;3.80;;;11.00;99.90;;;;;;4988773;28;20042;-67
2022/07/28 02:01:10;;;;;;;6.47;3.75;;;11.00;99.90;;;;;;4985258;28;20520;-65
2022/07/28 02:03:38;;;;;;;4.97;3.45;;;11.00;99.90;;;;;;4985464;28;20042;-67
2022/07/28 02:06:06;;;;;;;7.82;3.78;;;10.90;99.90;;;;;;5003733;28;20094;-65
2022/07/28 02:08:37;;;;;;;8.55;3.70;;;10.90;99.90;;;;;;4993670;28;20077;-65
2022/07/28 02:13:49;;;;;;;6.65;4.03;;;10.90;99.90;;;;;;4989610;28;20493;-64
2022/07/28 02:16:18;;;;;;;7.38;4.00;;;10.90;99.90;;;;;;4991979;28;20061;-71
2022/07/28 02:18:45;;;;;;;7.05;3.65;;;10.90;99.90;;;;;;4993732;28;20058;-65
2022/07/28 02:21:12;;;;;;;8.07;4.10;;;11.00;99.90;;;;;;4993084;28;20050;-65
2022/07/28 02:23:40;;;;;;;9.77;4.22;;;11.00;99.90;;;;;;4989636;28;20050;-65
2022/07/28 02:26:09;;;;;;;7.55;3.90;;;11.00;99.90;;;;;;4992933;28;20144;-64
2022/07/28 02:28:41;;;;;;;5.30;3.60;;;11.00;99.90;;;;;;4989559;28;20046;-65
2022/07/28 02:31:18;;;;;;;7.15;4.25;;;11.00;99.90;;;;;;4993544;28;20042;-64
2022/07/28 02:33:46;;;;;;;6.63;3.65;;;11.00;99.90;;;;;;4995494;28;20037;-69
2022/07/28 02:36:24;;;;;;;5.80;4.00;;;11.00;99.90;;;;;;4992977;28;20050;-68
2022/07/28 02:38:55;;;;;;;6.38;3.80;;;11.00;99.90;;;;;;4992168;28;20065;-65
2022/07/28 02:41:27;;;;;;;6.60;4.37;;;11.00;99.90;;;;;;4993218;28;20105;-66
2022/07/28 02:44:12;;;;;;;6.18;3.92;;;11.00;99.90;;;;;;4990741;28;20120;-65
2022/07/28 02:46:43;;;;;;;8.43;4.30;;;11.00;99.90;;;;;;4999492;28;20133;-64
2022/07/28 02:49:22;;;;;;;6.10;4.22;;;11.00;99.90;;;;;;4993264;28;20129;-65
2022/07/28 02:51:51;;;;;;;6.82;4.35;;;11.00;99.90;;;;;;4990583;28;20382;-65
2022/07/28 02:54:19;;;;;;;10.15;4.80;;;11.10;99.90;;;;;;4988883;28;20046;-65
2022/07/28 02:56:49;;;;;;;11.00;4.65;;;11.10;99.90;;;;;;4992642;28;20492;-66
2022/07/28 02:59:17;;;;;;;8.98;4.70;;;11.10;99.90;;;;;;4991255;28;20099;-66
2022/07/28 03:01:43;;;;;;;7.25;4.57;;;11.10;99.90;;;;;;4993044;28;20492;-65
2022/07/28 03:04:11;;;;;;;7.25;4.65;;;11.20;99.90;;;;;;4990620;28;20049;-65
2022/07/28 03:06:37;;;;;;;6.15;4.25;;;11.20;99.90;;;;;;4988675;28;20105;-66
2022/07/28 03:09:04;;;;;;;7.13;4.22;;;11.20;99.90;;;;;;4976653;28;20050;-65
2022/07/28 03:11:30;;;;;;;6.95;4.47;;;11.20;99.90;;;;;;4992103;28;20046;-65
2022/07/28 03:13:56;;;;;;;7.65;4.70;;;11.20;99.90;;;;;;4973239;28;20137;-66
2022/07/28 03:16:22;;;;;;;6.50;4.68;;;11.20;99.90;;;;;;4993421;28;20100;-65
2022/07/28 03:18:48;;;;;;;10.32;4.85;;;11.20;99.90;;;;;;4992432;28;20042;-66
2022/07/28 03:21:14;;;;;;;7.68;4.50;;;11.30;99.90;;;;;;4989913;28;20058;-69
2022/07/28 03:23:43;;;;;;;7.38;4.10;;;11.30;99.90;;;;;;4973714;28;20106;-67
2022/07/28 03:26:15;;;;;;;5.15;4.07;;;11.30;99.90;;;;;;4991432;28;20054;-66
2022/07/28 03:28:43;;;;;;;7.00;4.45;;;11.30;99.90;;;;;;4990097;28;20082;-67
2022/07/28 03:31:11;;;;;;;8.05;4.53;;;11.20;99.90;;;;;;4991516;28;20125;-67
2022/07/28 03:33:38;;;;;;;6.82;4.55;;;11.20;99.90;;;;;;4993093;28;20480;-69
2022/07/28 03:36:12;;;;;;;7.13;5.00;;;11.20;99.90;;;;;;4973659;28;20047;-65
2022/07/28 03:38:56;;;;;;;7.95;4.20;;;11.30;99.90;;;;;;4991126;28;20058;-65
2022/07/28 03:41:25;;;;;;;8.30;4.80;;;11.30;99.90;;;;;;4990552;28;20509;-65
2022/07/28 03:43:52;;;;;;;5.85;3.95;;;11.40;99.90;;;;;;4974715;28;20061;-65
2022/07/28 03:46:20;;;;;;;7.63;4.55;;;11.40;99.90;;;;;;4987717;28;20054;-67
2022/07/28 03:48:46;;;;;;;6.93;4.47;;;11.30;99.90;;;;;;4974712;28;20116;-67
2022/07/28 03:51:12;;;;;;;5.68;3.88;;;11.30;99.90;;;;;;4992192;28;20100;-67
2022/07/28 03:53:39;;;;;;;5.65;4.10;;;11.50;99.90;;;;;;4972230;28;20133;-66
2022/07/28 03:56:05;;;;;;;9.55;4.20;;;11.50;99.90;;;;;;4987763;28;20074;-67
2022/07/28 03:58:31;;;;;;;6.53;4.47;;;11.60;99.90;;;;;;4959542;28;20104;-67
2022/07/28 04:00:57;;;;;;;7.35;4.32;;;11.60;99.90;;;;;;4989817;28;20129;-66
2022/07/28 04:03:23;;;;;;;8.02;4.85;;;11.60;99.90;;;;;;4991080;28;20460;-66
2022/07/28 04:05:49;;;;;;;9.25;4.78;;;11.70;99.90;;;;;;4986745;28;20162;-66
2022/07/28 04:08:15;;;;;;;8.40;4.88;;;11.70;99.90;;;;;;4989787;28;20489;-65
2022/07/28 04:10:41;;;;;;;6.43;4.45;;;11.70;99.90;;;;;;4973670;28;20046;-67
2022/07/28 04:13:07;;;;;;;6.75;4.90;;;11.80;99.90;;;;;;4975089;28;20050;-65
2022/07/28 04:15:33;;;;;;;8.45;4.72;;;11.80;99.90;;;;;;4989361;28;20054;-65
2022/07/28 04:17:59;;;;;;;7.88;4.75;;;11.80;99.90;;;;;;4990743;28;20046;-65
2022/07/28 04:20:27;;;;;;;6.25;4.65;;;11.80;99.90;;;;;;4973508;28;20050;-65
2022/07/28 04:22:53;;;;;;;9.57;5.28;;;11.80;99.90;;;;;;4974464;28;20130;-65
2022/07/28 04:25:21;;;;;;;12.05;5.00;;;11.90;99.90;;;;;;4989400;28;20049;-65
2022/07/28 04:27:47;;;;;;;7.55;4.68;;;11.80;99.90;;;;;;4988425;28;20125;-65
2022/07/28 04:30:19;;;;;;;8.90;4.95;;;11.80;99.90;;;;;;4990711;28;20057;-65
2022/07/28 04:32:47;;;;;;;13.23;5.40;;;11.80;99.90;;;;;;4974094;28;20054;-67
2022/07/28 04:35:14;;;;;;;7.53;4.38;;;11.80;99.90;;;;;;4986883;28;20050;-65
2022/07/28 04:37:41;;;;;;;9.27;4.65;;;11.90;99.90;;;;;;4974520;28;20079;-65
2022/07/28 04:40:09;;;;;;;12.15;5.05;;;12.00;99.90;;;;;;4991007;28;20054;-65
2022/07/28 04:42:37;;;;;;;9.93;4.75;;;12.10;99.90;;;;;;4973620;28;20050;-65
2022/07/28 04:45:05;;;;;;;8.07;5.00;;;12.10;99.90;;;;;;5007202;28;20500;-66
2022/07/28 04:47:31;;;;;;;8.23;4.97;;;12.10;99.90;;;;;;4986584;28;20092;-65
2022/07/28 04:49:57;;;;;;;8.88;4.93;;;12.20;99.90;;;;;;4991005;28;20527;-66
2022/07/28 04:52:24;;;;;;;13.32;4.65;;;12.30;99.90;;;;;;4971356;28;20505;-65
2022/07/28 04:54:50;;;;;;;9.00;5.15;;;12.30;99.90;;;;;;4974951;28;20514;-66
2022/07/28 04:57:16;;;;;;;8.07;4.60;;;12.40;99.90;;;;;;4986819;28;20042;-68
2022/07/28 04:59:42;;;;;;;8.85;5.25;;;12.40;99.90;;;;;;4991068;28;20054;-65
2022/07/28 05:02:08;;;;;;;8.50;5.50;;;12.50;99.90;;;;;;4973806;28;20046;-66
2022/07/28 05:04:34;;;;;;;7.70;4.70;;;12.50;99.90;;;;;;4990434;28;20067;-66
2022/07/28 05:07:00;;;;;;;7.88;4.60;;;12.60;99.90;;;;;;4969895;28;20078;-65
2022/07/28 05:09:26;;;;;;;7.13;4.40;;;12.70;99.90;;;;;;4988451;28;20078;-66
2022/07/28 05:11:52;;;;;;;6.85;4.35;;;12.90;99.90;;;;;;4990882;28;20072;-68
2022/07/28 05:14:18;;;;;;;8.10;4.53;;;12.90;99.90;;;;;;4988122;28;20520;-65
2022/07/28 05:16:44;;;;;;;7.68;4.53;;;13.00;99.90;;;;;;4988814;28;20054;-71
2022/07/28 05:19:11;;;;;;;7.82;4.47;;;13.00;99.90;;;;;;4990216;28;20133;-66
2022/07/28 05:21:37;;;;;;;9.27;4.70;;;13.10;99.90;;;;;;4974483;28;20082;-67
2022/07/28 05:24:03;;;;;;;8.55;4.93;;;13.20;99.90;;;;;;4989488;28;20088;-65
2022/07/28 05:26:31;;;;;;;6.75;4.30;;;13.20;99.90;;;;;;4974651;28;20496;-65
2022/07/28 05:28:57;;;;;;;8.45;4.60;;;13.20;99.90;;;;;;4987896;28;20504;-65
2022/07/28 05:31:23;;;;;;;7.65;5.03;;;13.30;99.90;;;;;;4990708;28;20074;-65
2022/07/28 05:33:49;;;;;;;5.70;4.18;;;13.40;99.90;;;;;;4995362;28;20092;-66
2022/07/28 05:36:15;;;;;;;8.95;4.60;;;13.40;99.90;;;;;;4974404;28;20421;-68
2022/07/28 05:38:41;;;;;;;7.35;4.50;;;13.60;99.90;;;;;;4988685;28;20042;-66
2022/07/28 05:41:07;;;;;;;6.95;4.38;;;13.60;99.90;;;;;;4973101;28;20058;-67
2022/07/28 05:43:36;;;;;;;7.78;3.92;;;13.70;99.90;;;;;;4989429;28;20061;-66
2022/07/28 05:46:05;;;;;;;7.22;4.20;;;13.90;99.90;;;;;;4992839;28;20050;-66
2022/07/28 05:48:32;;;;;;;6.75;4.40;;;14.00;99.90;;;;;;4990498;28;20038;-66
2022/07/28 05:50:58;;;;;;;6.05;3.47;;;14.10;99.90;;;;;;4992883;28;20058;-65
2022/07/28 05:53:24;;;;;;;7.38;3.33;;;14.30;99.90;;;;;;4990443;28;20185;-65
2022/07/28 05:55:50;;;;;;;5.82;3.70;;;14.40;99.90;;;;;;4994148;28;20050;-66
2022/07/28 05:58:21;;;;;;;6.60;3.90;;;14.40;99.90;;;;;;4991619;28;20038;-65
2022/07/28 06:00:47;;;;;;;7.65;3.40;;;14.50;99.90;;;;;;4991964;28;20051;-66
2022/07/28 06:03:13;;;;;;;6.57;3.45;;;14.60;99.90;;;;;;4977848;28;20050;-66
2022/07/28 06:05:39;;;;;;;9.60;3.55;;;14.60;99.90;;;;;;4992877;28;20443;-65
2022/07/28 06:08:05;;;;;;;5.68;3.35;;;14.60;99.90;;;;;;4993970;28;20054;-66
2022/07/28 06:13:17;;;;;;;5.85;3.42;;;14.80;99.90;;;;;;4992108;28;20097;-66
2022/07/28 06:15:46;;;;;;;7.78;4.03;;;14.80;99.90;;;;;;4993057;28;20042;-66
2022/07/28 06:18:13;;;;;;;5.53;3.55;;;14.90;99.90;;;;;;4992260;28;20050;-67
2022/07/28 06:20:39;;;;;;;6.43;3.63;;;14.90;99.90;;;;;;4992386;28;20050;-67
2022/07/28 06:23:05;;;;;;;6.20;3.75;;;15.10;99.90;;;;;;4976124;28;20129;-67
2022/07/28 06:25:31;;;;;;;7.32;3.05;;;15.20;99.90;;;;;;4993716;28;20046;-67
2022/07/28 06:27:59;;;;;;;9.80;3.72;;;15.20;99.90;;;;;;4991345;28;20523;-68
2022/07/28 06:30:26;;;;;;;5.07;3.30;;;15.30;99.90;;;;;;4990928;28;20412;-70
2022/07/28 06:32:53;;;;;;;7.50;3.22;;;15.40;99.90;;;;;;4993037;28;20057;-66
2022/07/28 06:35:19;;;;;;;6.90;3.50;;;15.50;99.90;;;;;;5012311;28;20084;-66
2022/07/28 06:37:47;;;;;;;6.07;3.00;;;15.50;99.90;;;;;;4974484;28;20105;-66
2022/07/28 06:40:15;;;;;;;4.75;3.05;;;15.60;99.90;;;;;;4990362;28;20042;-66
2022/07/28 06:42:43;;;;;;;7.68;3.03;;;15.70;99.90;;;;;;4990553;28;20444;-66
2022/07/28 06:45:10;;;;;;;7.28;2.55;;;15.80;99.90;;;;;;4993279;28;20595;-66
2022/07/28 06:47:36;;;;;;;4.45;2.38;;;15.80;99.90;;;;;;4974781;28;20062;-68
2022/07/28 06:50:04;;;;;;;4.82;3.30;;;15.90;99.90;;;;;;4992990;28;20096;-66
2022/07/28 06:52:31;;;;;;;8.85;3.20;;;15.90;99.90;;;;;;4988809;28;20410;-66
2022/07/28 06:54:59;;;;;;;5.60;2.58;;;16.00;99.90;;;;;;4992783;28;20046;-66
2022/07/28 06:57:26;;;;;;;5.43;3.10;;;16.10;99.90;;;;;;4976347;28;20125;-66
2022/07/28 06:59:52;;;;;;;5.43;2.50;;;16.10;99.90;;;;;;4992914;28;20046;-67
2022/07/28 07:02:19;;;;;;;5.95;2.30;;;16.10;99.90;;;;;;4974696;28;20053;-65
2022/07/28 07:04:45;;;;;;;2.88;1.95;;;16.20;99.90;;;;;;4993109;28;20085;-71
2022/07/28 07:07:12;;;;;;;4.38;1.75;;;16.30;99.90;;;;;;4990597;28;20730;-67
2022/07/28 07:09:38;;;;;;;8.93;2.38;;;16.40;99.90;;;;;;4988583;28;20047;-66
2022/07/28 07:12:05;;;;;;;6.68;2.20;;;16.60;99.90;;;;;;4971532;28;20065;-68
2022/07/28 07:14:31;;;;;;;4.93;2.17;;;16.60;99.90;;;;;;4976592;28;20050;-67
2022/07/28 07:16:57;;;;;;;5.75;1.75;;;16.70;99.90;;;;;;4990839;28;20496;-67
2022/07/28 07:19:23;;;;;;;4.00;1.90;;;16.80;99.90;;;;;;5006882;28;20056;-66
2022/07/28 07:21:49;;;;;;;6.03;2.17;;;16.80;99.90;;;;;;4975233;28;21481;-66
2022/07/28 07:24:15;;;;;;;6.65;2.25;;;16.90;99.90;;;;;;4992683;28;20096;-70
2022/07/28 07:26:41;;;;;;;7.60;2.63;;;16.90;99.90;;;;;;4992443;28;20404;-68
2022/07/28 07:29:08;;;;;;;5.32;2.70;;;16.90;99.90;;;;;;4976406;28;20053;-67
2022/07/28 07:31:38;;;;;;;7.50;2.45;;;16.90;99.90;;;;;;4992250;28;20053;-66
2022/07/28 07:34:04;;;;;;;6.47;2.40;;;17.10;99.90;;;;;;4995015;28;20041;-68
2022/07/28 07:36:30;;;;;;;4.07;2.28;;;17.10;99.90;;;;;;4976775;28;20402;-69
2022/07/28 07:38:56;;;;;;;8.10;2.10;;;17.30;99.90;;;;;;4991658;28;20108;-66
2022/07/28 07:41:22;;;;;;;7.20;2.30;;;17.40;99.90;;;;;;4989143;28;20054;-69
2022/07/28 07:43:48;;;;;;;10.88;3.42;;;17.50;99.90;;;;;;4988507;28;20042;-67
2022/07/28 07:46:15;;;;;;;8.68;2.22;;;17.50;99.90;;;;;;4992069;28;20378;-70
2022/07/28 07:48:42;;;;;;;4.53;1.80;;;17.60;99.90;;;;;;4974880;28;20050;-67
2022/07/28 07:51:08;;;;;;;5.45;1.80;;;17.60;99.90;;;;;;4972817;28;20077;-69
2022/07/28 07:53:34;;;;;;;4.38;1.60;;;17.60;99.90;;;;;;4992448;28;20061;-67
2022/07/28 07:56:00;;;;;;;6.43;1.90;;;17.60;99.90;;;;;;5003411;28;20047;-66
2022/07/28 07:58:27;;;;;;;6.63;2.17;;;17.80;99.90;;;;;;4991349;28;20136;-66
2022/07/28 08:00:52;;;;;;;6.45;1.70;;;18.10;99.90;;;;;;4973431;28;20660;-67
2022/07/28 08:03:19;;;;;;;8.10;1.92;;;18.10;99.90;;;;;;4980929;28;20046;-67
2022/07/28 08:05:45;;;;;;;4.53;1.40;;;18.20;99.90;;;;;;4991384;28;20137;-70
2022/07/28 08:08:11;;;;;;;5.95;1.33;;;18.40;99.90;;;;;;4990459;28;20046;-69
2022/07/28 08:10:38;;;;;;;4.63;1.40;;;18.50;99.90;;;;;;4994592;28;20042;-70
2022/07/28 08:13:06;;;;;;;5.55;1.67;;;18.70;99.90;;;;;;4983242;28;20073;-66
2022/07/28 08:15:33;;;;;;;5.72;1.50;;;18.80;99.90;;;;;;4975394;28;20373;-67
2022/07/28 08:18:00;;;;;;;6.00;1.63;;;18.90;99.90;;;;;;4975620;28;20050;-66
2022/07/28 08:20:26;;;;;;;3.88;1.30;;;19.00;99.90;;;;;;5002068;28;20096;-66
2022/07/28 08:22:55;;;;;;;6.82;1.73;;;19.10;99.90;;;;;;4974880;28;20086;-66
2022/07/28 08:25:21;;;;;;;3.40;1.55;;;19.30;99.90;;;;;;4990297;28;20046;-66
2022/07/28 08:27:48;;;;;;;3.60;1.33;;;19.40;99.90;;;;;;4990061;28;20118;-67
2022/07/28 08:30:15;;;;;;;5.07;1.40;;;19.40;99.90;;;;;;4985816;28;20194;-67
2022/07/28 08:32:41;;;;;;;3.90;1.42;;;19.30;99.90;;;;;;4970622;28;20111;-66
2022/07/28 08:35:08;;;;;;;4.38;1.30;;;19.40;99.90;;;;;;4988853;28;20042;-67
2022/07/28 08:37:34;;;;;;;2.90;1.15;;;19.50;99.90;;;;;;4988208;28;20508;-67
2022/07/28 08:40:00;;;;;;;3.88;1.35;;;19.60;99.90;;;;;;4974826;28;20047;-66
2022/07/28 08:42:49;;;;;;;5.72;1.40;;;19.80;99.90;;;;;;4989989;28;20125;-66
2022/07/28 08:45:16;;;;;;;5.32;1.60;;;19.80;99.90;;;;;;4975095;28;20042;-70
2022/07/28 08:47:43;;;;;;;4.93;1.75;;;19.80;99.90;;;;;;4991472;28;20046;-68
2022/07/28 08:50:12;;;;;;;2.95;2.22;;;19.90;99.90;;;;;;4991179;28;20046;-67
2022/07/28 08:52:39;;;;;;;4.68;2.45;;;20.20;99.90;;;;;;4989982;28;20042;-66
2022/07/28 08:55:07;;;;;;;3.65;2.30;;;20.20;99.90;;;;;;4975244;28;20050;-67
2022/07/28 08:57:41;;;;;;;4.03;2.38;;;20.30;99.90;;;;;;4988832;28;20047;-67
2022/07/28 09:00:09;;;;;;;4.55;2.42;;;20.40;99.90;;;;;;4987373;28;20460;-69
2022/07/28 09:02:41;;;;;;;4.00;2.40;;;20.40;99.90;;;;;;4986740;28;20042;-66
2022/07/28 09:05:08;;;;;;;8.80;2.25;;;20.40;99.90;;;;;;4974899;28;20046;-67
2022/07/28 09:07:37;;;;;;;5.95;2.60;;;20.40;99.90;;;;;;4974759;28;20133;-66
2022/07/28 09:10:04;;;;;;;3.95;1.98;;;20.60;99.90;;;;;;4973951;28;20042;-66
2022/07/28 09:12:41;;;;;;;4.78;1.90;;;20.80;99.90;;;;;;4984854;28;21393;-70
2022/07/28 09:15:08;;;;;;;4.15;1.65;;;20.90;99.90;;;;;;4981327;28;20496;-70
2022/07/28 09:17:35;;;;;;;2.55;1.40;;;21.20;99.90;;;;;;4974324;28;20064;-67
2022/07/28 09:20:03;;;;;;;5.90;1.58;;;21.30;99.90;;;;;;4990180;28;20132;-71
2022/07/28 09:22:31;;;;;;;4.65;1.40;;;21.40;99.90;;;;;;4992953;28;20050;-68
2022/07/28 09:25:02;;;;;;;4.40;1.00;;;21.40;99.90;;;;;;4994435;28;20108;-69
2022/07/28 09:27:43;;;;;;;2.28;1.10;;;21.40;99.90;;;;;;4992531;28;20085;-69
2022/07/28 09:30:10;;;;;;;2.37;0.97;;;21.50;99.40;;;;;;4993409;28;20057;-67
2022/07/28 09:32:36;;;;;;;1.17;0.80;;;21.40;97.60;;;;;;4994116;28;20064;-69
2022/07/28 09:35:02;;;;;;;1.98;0.80;;;21.40;96.90;;;;;;5002592;28;20089;-72
2022/07/28 09:37:28;;;;;;;2.88;0.90;;;21.40;96.00;;;;;;4976039;28;20178;-68
2022/07/28 09:39:59;;;;;;;1.85;0.82;;;21.70;96.10;;;;;;4976525;28;20054;-70
2022/07/28 09:42:49;;;;;;;2.53;1.00;;;21.60;94.40;;;;;;4993327;28;20055;-68
2022/07/28 09:45:15;;;;;;;1.40;0.70;;;21.60;92.00;;;;;;4988866;28;20483;-71
2022/07/28 09:47:41;;;;;;;1.92;0.90;;;21.70;93.80;;;;;;4992859;28;20137;-68
2022/07/28 09:50:18;;;;;;;2.67;1.00;;;21.90;92.80;;;;;;4978696;28;20046;-71
2022/07/28 09:52:44;;;;;;;2.67;1.00;;;22.00;92.10;;;;;;4991265;28;20042;-68
2022/07/28 09:55:11;;;;;;;2.80;1.00;;;22.20;91.90;;;;;;4992211;28;20049;-68
2022/07/28 09:57:39;;;;;;;5.57;1.10;;;22.10;91.10;;;;;;4995762;28;20046;-71
2022/07/28 10:00:12;;;;;;;0.98;0.70;;;22.20;91.00;;;;;;4977293;28;20064;-68
2022/07/28 10:02:38;;;;;;;2.08;0.80;;;22.30;88.80;;;;;;4993138;28;20055;-71
2022/07/28 10:05:05;;;;;;;1.73;0.75;;;22.30;89.30;;;;;;4993473;28;20109;-69
2022/07/28 10:07:33;;;;;;;1.40;0.70;;;22.40;87.80;;;;;;4975606;28;20586;-68
2022/07/28 10:10:00;;;;;;;1.85;0.90;;;22.60;87.00;;;;;;4973846;28;20516;-68
2022/07/28 10:12:31;;;;;;;1.52;0.70;;;22.60;84.60;;;;;;4992690;28;20046;-70
2022/07/28 10:16:09;;;;;;;2.25;0.90;;;22.60;84.10;;;;;;4992570;28;20411;-68
2022/07/28 10:17:56;;;;;;;1.67;0.65;;;22.60;82.70;;;;;;5020711;28;20064;-68
2022/07/28 10:20:23;;;;;;;2.55;0.90;;;22.60;82.80;;;;;;4997327;28;20058;-68
2022/07/28 10:22:51;;;;;;;2.40;0.90;;;22.70;82.60;;;;;;4992677;28;20129;-68
2022/07/28 10:25:20;;;;;;;2.65;0.90;;;22.70;81.40;;;;;;4990834;28;20043;-69
2022/07/28 10:27:48;;;;;;;1.90;1.00;;;22.70;80.60;;;;;;4993365;28;20108;-68
2022/07/28 10:30:16;;;;;;;0.80;0.80;;;22.70;79.40;;;;;;4992940;28;20489;-72
2022/07/28 10:32:43;;;;;;;1.35;0.90;;;22.70;80.10;;;;;;4976052;28;20109;-69
2022/07/28 10:35:15;;;;;;;0.80;0.80;;;22.70;80.70;;;;;;4984987;28;20043;-70
2022/07/28 10:37:58;;;;;;;2.13;0.80;;;22.60;81.10;;;;;;5001799;28;20481;-69
2022/07/28 10:40:46;;;;;;;2.42;0.80;;;22.50;80.20;;;;;;4977177;28;20058;-69
2022/07/28 10:43:13;;;;;;;3.47;1.10;;;22.40;80.70;;;;;;4992908;28;20073;-69
2022/07/28 10:45:40;;;;;;;2.10;0.80;;;22.30;81.50;;;;;;5000365;28;20044;-69
2022/07/28 10:48:07;;;;;;;3.10;2.17;;;22.10;81.60;;;;;;4994168;28;20051;-69
2022/07/28 10:50:37;;;;;;;2.47;1.10;;;22.00;81.40;;;;;;4976459;28;20061;-68
2022/07/28 10:53:08;;;;;;;2.95;0.82;;;21.90;81.80;;;;;;4974863;28;20054;-69
2022/07/28 10:56:01;;;;;;;2.72;0.90;;;21.90;82.00;;;;;;4986439;28;20050;-69
2022/07/28 10:58:45;;;;;;;3.97;1.00;;;21.80;81.30;;;;;;4984360;28;20511;-69
2022/07/28 11:01:31;;;;;;;2.63;0.90;;;21.80;81.20;;;;;;4977100;28;20046;-69
2022/07/28 11:03:57;;;;;;;3.97;1.20;;;21.80;82.50;;;;;;4992558;28;20053;-71
2022/07/28 11:06:30;;;;;;;1.73;0.80;;;21.80;82.40;;;;;;4993044;28;20046;-68
2022/07/28 11:08:58;;;;;;;3.03;1.08;;;21.80;82.20;;;;;;5006835;28;20408;-72
2022/07/28 11:11:53;;;;;;;1.98;0.90;;;21.80;82.60;;;;;;4990465;28;20038;-69
2022/07/28 11:14:22;;;;;;;1.95;0.80;;;21.80;81.10;;;;;;5006335;28;20046;-69
2022/07/28 11:17:04;;;;;;;2.55;1.00;;;21.80;82.10;;;;;;4992977;28;20082;-68
2022/07/28 11:19:49;;;;;;;1.00;0.90;;;22.10;81.90;;;;;;4990701;28;20057;-69
2022/07/28 11:22:20;;;;;;;2.17;0.73;;;22.40;81.70;;;;;;5023516;28;20072;-70
2022/07/28 11:25:01;;;;;;;4.15;0.90;;;22.50;78.00;;;;;;4988359;28;20052;-69
2022/07/28 11:27:39;;;;;;;2.88;1.00;;;22.70;76.50;;;;;;4976152;28;20058;-68
2022/07/28 11:30:34;;;;;;;1.05;0.82;;;22.80;76.70;;;;;;4976492;28;20096;-69
2022/07/28 11:33:05;;;;;;;1.85;0.90;;;23.10;78.10;;;;;;4988992;28;20426;-69
2022/07/28 11:35:52;;;;;;;2.17;0.80;;;23.20;78.10;;;;;;4989912;28;20057;-70
2022/07/28 11:38:18;;;;;;;2.83;0.80;;;23.20;75.40;;;;;;4971192;28;20101;-69
2022/07/28 11:40:55;;;;;;;1.98;0.80;;;23.20;77.50;;;;;;4996634;28;20137;-70
2022/07/28 11:43:25;;;;;;;3.83;0.80;;;23.40;76.40;;;;;;4990301;28;20081;-69
2022/07/28 11:46:03;;;;;;;3.47;1.20;;;23.50;77.20;;;;;;5017774;28;20096;-68
2022/07/28 11:48:30;;;;;;;4.78;1.00;;;23.50;75.50;;;;;;4991792;28;20061;-69
2022/07/28 11:51:01;;;;;;;3.42;1.00;;;23.70;75.70;;;;;;4973106;28;20050;-69
2022/07/28 11:53:41;;;;;;;3.67;1.80;;;23.90;74.00;;;;;;4969634;28;20042;-69
2022/07/28 11:56:10;;;;;;;1.67;0.90;;;24.00;72.70;;;;;;5014499;28;20520;-69
2022/07/28 11:58:37;;;;;;;2.17;0.80;;;23.80;73.10;;;;;;4991480;28;20057;-69
2022/07/28 12:01:13;;;;;;;3.22;0.90;;;23.70;73.50;;;;;;4993538;28;20046;-68
2022/07/28 12:03:41;;;;;;;2.00;0.90;;;23.80;72.60;;;;;;4974608;28;20053;-68
2022/07/28 12:06:08;;;;;;;3.45;0.90;;;23.90;73.10;;;;;;4974480;28;20046;-70
2022/07/28 12:08:55;;;;;;;2.58;0.88;;;23.90;72.90;;;;;;4975312;28;20046;-70
2022/07/28 12:11:24;;;;;;;2.67;0.90;;;24.10;70.80;;;;;;4990880;28;20049;-68
2022/07/28 12:14:01;;;;;;;1.80;0.82;;;24.10;72.70;;;;;;4975525;28;20054;-69
2022/07/28 12:16:28;;;;;;;6.82;1.00;;;24.30;70.60;;;;;;4973443;28;20115;-69
2022/07/28 12:18:54;;;;;;;1.90;0.88;;;24.60;70.90;;;;;;4989051;28;20133;-69
2022/07/28 12:21:40;;;;;;;2.28;1.02;;;24.70;69.90;;;;;;4990886;28;20061;-68
2022/07/28 12:24:15;;;;;;;2.42;0.95;;;25.20;65.50;;;;;;4991572;28;20078;-68
2022/07/28 12:26:42;;;;;;;3.17;0.90;;;25.20;67.40;;;;;;4986289;28;20050;-71
2022/07/28 12:29:13;;;;;;;1.58;0.88;;;24.90;67.30;;;;;;4974268;28;20050;-68
2022/07/28 12:32:07;;;;;;;2.95;1.20;;;24.90;66.50;;;;;;4974837;28;20396;-69
2022/07/28 12:34:34;;;;;;;1.75;0.90;;;24.90;64.70;;;;;;4991220;28;20046;-69
2022/07/28 12:37:03;;;;;;;4.93;1.15;;;25.30;67.80;;;;;;4973435;28;20096;-68
2022/07/28 12:39:32;;;;;;;1.77;0.95;;;25.70;67.30;;;;;;4990620;28;20065;-69
2022/07/28 12:42:10;;;;;;;1.35;1.08;;;26.10;66.10;;;;;;4973231;28;20050;-68
2022/07/28 12:44:41;;;;;;;1.15;0.88;;;26.30;62.20;;;;;;4991370;28;20050;-69
2022/07/28 12:47:12;;;;;;;1.73;0.88;;;26.40;65.50;;;;;;5003839;28;20046;-70
2022/07/28 12:49:40;;;;;;;2.13;1.10;;;26.60;64.90;;;;;;4973992;28;20053;-69
2022/07/28 12:52:21;;;;;;;3.47;1.08;;;26.60;63.80;;;;;;4989587;28;20074;-68
2022/07/28 12:54:48;;;;;;;1.48;0.88;;;26.50;60.00;;;;;;4971537;28;20046;-70
2022/07/28 12:57:14;;;;;;;1.92;0.90;;;26.40;62.70;;;;;;4998718;28;20077;-68
2022/07/28 12:59:43;;;;;;;1.63;0.80;;;26.50;62.20;;;;;;4974007;28;20112;-69
2022/07/28 13:02:09;;;;;;;1.95;1.08;;;26.70;62.10;;;;;;4984164;28;20042;-69